sensor_id;sensor_type;location;lat;lon;timestamp;pressure;altitude;pressure_sealevel;temperature;humidity
41800;BME280;27468;47.460;19.034;2023-04-03T00:00:22;100233.13;;;7.99;55.09
41800;BME280;27468;47.460;19.034;2023-04-03T00:02:47;100300.13;;;8.31;55.38
41800;BME280;27468;47.460;19.034;2023-04-03T00:05:13;100261.09;;;8.03;55.03
41800;BME280;27468;47.460;19.034;2023-04-03T00:07:38;100289.69;;;8.26;54.71
41800;BME280;27468;47.460;19.034;2023-04-03T00:10:04;100288.84;;;8.22;55.56
41800;BME280;27468;47.460;19.034;2023-04-03T00:12:29;100299.31;;;8.25;54.85
41800;BME280;27468;47.460;19.034;2023-04-03T00:14:55;100292.41;;;8.18;54.75
41800;BME280;27468;47.460;19.034;2023-04-03T00:17:20;100259.38;;;7.99;55.12
41800;BME280;27468;47.460;19.034;2023-04-03T00:19:45;100259.41;;;7.98;54.65
41800;BME280;27468;47.460;19.034;2023-04-03T00:22:11;100303.78;;;8.19;54.67
41800;BME280;27468;47.460;19.034;2023-04-03T00:24:36;100313.44;;;8.14;55.40
41800;BME280;27468;47.460;19.034;2023-04-03T00:27:02;100296.09;;;8.04;55.62
41800;BME280;27468;47.460;19.034;2023-04-03T00:29:27;100307.31;;;8.15;55.86
41800;BME280;27468;47.460;19.034;2023-04-03T00:31:52;100233.38;;;7.78;55.56
41800;BME280;27468;47.460;19.034;2023-04-03T00:34:18;100261.25;;;7.88;55.48
41800;BME280;27468;47.460;19.034;2023-04-03T00:36:44;100294.31;;;8.07;55.08
41800;BME280;27468;47.460;19.034;2023-04-03T00:39:10;100225.63;;;7.64;55.38
41800;BME280;27468;47.460;19.034;2023-04-03T00:41:35;100243.00;;;7.76;54.86
41800;BME280;27468;47.460;19.034;2023-04-03T00:47:05;100290.84;;;8.02;54.66
41800;BME280;27468;47.460;19.034;2023-04-03T00:49:32;100298.69;;;8.07;54.88
41800;BME280;27468;47.460;19.034;2023-04-03T00:51:58;100280.47;;;7.90;54.89
41800;BME280;27468;47.460;19.034;2023-04-03T00:54:25;100304.88;;;8.01;54.81
41800;BME280;27468;47.460;19.034;2023-04-03T00:56:51;100297.91;;;7.97;55.44
41800;BME280;27468;47.460;19.034;2023-04-03T00:59:22;100292.69;;;7.94;56.26
41800;BME280;27468;47.460;19.034;2023-04-03T01:01:50;100334.44;;;8.17;56.83
41800;BME280;27468;47.460;19.034;2023-04-03T01:04:33;100320.50;;;8.09;57.27
41800;BME280;27468;47.460;19.034;2023-04-03T01:07:05;100289.97;;;8.02;57.06
41800;BME280;27468;47.460;19.034;2023-04-03T01:09:33;100300.50;;;8.00;55.98
41800;BME280;27468;47.460;19.034;2023-04-03T01:12:21;100334.34;;;8.24;56.77
41800;BME280;27468;47.460;19.034;2023-04-03T01:14:53;100268.25;;;7.87;57.28
41800;BME280;27468;47.460;19.034;2023-04-03T01:17:30;100329.03;;;8.29;57.18
41800;BME280;27468;47.460;19.034;2023-04-03T01:22:49;100336.03;;;8.32;55.25
41800;BME280;27468;47.460;19.034;2023-04-03T01:25:19;100331.69;;;8.26;55.34
41800;BME280;27468;47.460;19.034;2023-04-03T01:27:45;100317.81;;;8.16;54.82
41800;BME280;27468;47.460;19.034;2023-04-03T01:30:11;100320.59;;;8.04;54.53
41800;BME280;27468;47.460;19.034;2023-04-03T01:32:37;100311.75;;;8.10;55.39
41800;BME280;27468;47.460;19.034;2023-04-03T01:35:03;100316.13;;;8.09;56.76
41800;BME280;27468;47.460;19.034;2023-04-03T01:37:29;100320.50;;;8.10;56.68
41800;BME280;27468;47.460;19.034;2023-04-03T01:39:54;100329.22;;;8.12;56.12
41800;BME280;27468;47.460;19.034;2023-04-03T01:42:19;100337.94;;;8.16;56.37
41800;BME280;27468;47.460;19.034;2023-04-03T01:44:45;100341.34;;;8.25;56.33
41800;BME280;27468;47.460;19.034;2023-04-03T01:47:11;100343.19;;;8.17;56.01
41800;BME280;27468;47.460;19.034;2023-04-03T01:49:36;100337.13;;;8.11;55.58
41800;BME280;27468;47.460;19.034;2023-04-03T01:52:02;100339.75;;;8.09;55.87
41800;BME280;27468;47.460;19.034;2023-04-03T01:54:27;100276.38;;;7.63;55.93
41800;BME280;27468;47.460;19.034;2023-04-03T01:56:52;100281.50;;;7.74;56.28
41800;BME280;27468;47.460;19.034;2023-04-03T01:59:18;100322.38;;;8.01;55.52
41800;BME280;27468;47.460;19.034;2023-04-03T02:01:44;100305.81;;;7.94;54.86
41800;BME280;27468;47.460;19.034;2023-04-03T02:04:11;100316.25;;;7.99;55.29
41800;BME280;27468;47.460;19.034;2023-04-03T02:06:36;100243.28;;;7.50;55.47
41800;BME280;27468;47.460;19.034;2023-04-03T02:09:02;100345.84;;;8.14;55.75
41800;BME280;27468;47.460;19.034;2023-04-03T02:11:28;100345.22;;;7.91;54.80
41800;BME280;27468;47.460;19.034;2023-04-03T02:13:53;100319.09;;;7.79;52.84
41800;BME280;27468;47.460;19.034;2023-04-03T02:16:19;100359.13;;;7.99;53.25
41800;BME280;27468;47.460;19.034;2023-04-03T02:18:44;100312.19;;;7.69;53.04
41800;BME280;27468;47.460;19.034;2023-04-03T02:21:10;100277.31;;;7.54;52.99
41800;BME280;27468;47.460;19.034;2023-04-03T02:23:35;100329.59;;;7.76;52.75
41800;BME280;27468;47.460;19.034;2023-04-03T02:26:07;100320.94;;;7.66;53.18
41800;BME280;27468;47.460;19.034;2023-04-03T02:28:33;100345.31;;;7.82;52.47
41800;BME280;27468;47.460;19.034;2023-04-03T02:30:59;100341.78;;;7.83;51.87
41800;BME280;27468;47.460;19.034;2023-04-03T02:33:24;100320.97;;;7.61;52.24
41800;BME280;27468;47.460;19.034;2023-04-03T02:35:56;100350.59;;;7.76;52.66
41800;BME280;27468;47.460;19.034;2023-04-03T02:38:23;100338.44;;;7.66;52.66
41800;BME280;27468;47.460;19.034;2023-04-03T02:40:48;100351.59;;;7.62;52.46
41800;BME280;27468;47.460;19.034;2023-04-03T02:43:14;100306.31;;;7.42;52.63
41800;BME280;27468;47.460;19.034;2023-04-03T02:45:40;100371.56;;;7.79;53.28
41800;BME280;27468;47.460;19.034;2023-04-03T02:48:05;100348.06;;;7.65;52.39
41800;BME280;27468;47.460;19.034;2023-04-03T02:50:31;100350.72;;;7.62;52.26
41800;BME280;27468;47.460;19.034;2023-04-03T02:52:57;100363.84;;;7.59;52.85
41800;BME280;27468;47.460;19.034;2023-04-03T02:55:22;100362.16;;;7.53;52.93
41800;BME280;27468;47.460;19.034;2023-04-03T02:57:48;100326.50;;;7.31;52.73
41800;BME280;27468;47.460;19.034;2023-04-03T03:00:13;100289.91;;;7.13;53.36
41800;BME280;27468;47.460;19.034;2023-04-03T03:02:39;100303.81;;;7.25;53.37
41800;BME280;27468;47.460;19.034;2023-04-03T03:05:05;100329.94;;;7.38;52.77
41800;BME280;27468;47.460;19.034;2023-04-03T03:07:31;100320.41;;;7.26;52.41
41800;BME280;27468;47.460;19.034;2023-04-03T03:09:57;100317.81;;;7.21;52.53
41800;BME280;27468;47.460;19.034;2023-04-03T03:12:22;100371.94;;;7.33;52.84
41800;BME280;27468;47.460;19.034;2023-04-03T03:14:49;100349.31;;;7.15;53.08
41800;BME280;27468;47.460;19.034;2023-04-03T03:17:15;100342.34;;;7.13;53.17
41800;BME280;27468;47.460;19.034;2023-04-03T03:19:40;100331.03;;;7.05;53.36
41800;BME280;27468;47.460;19.034;2023-04-03T03:22:06;100289.22;;;6.89;53.77
41800;BME280;27468;47.460;19.034;2023-04-03T03:24:31;100293.50;;;6.98;53.20
41800;BME280;27468;47.460;19.034;2023-04-03T03:26:56;100336.25;;;7.11;53.48
41800;BME280;27468;47.460;19.034;2023-04-03T03:29:22;100273.59;;;6.73;53.21
41800;BME280;27468;47.460;19.034;2023-04-03T03:31:47;100300.63;;;6.85;53.29
41800;BME280;27468;47.460;19.034;2023-04-03T03:34:13;100293.63;;;6.84;53.37
41800;BME280;27468;47.460;19.034;2023-04-03T03:36:39;100377.22;;;7.27;53.02
41800;BME280;27468;47.460;19.034;2023-04-03T03:39:04;100367.66;;;7.21;53.13
41800;BME280;27468;47.460;19.034;2023-04-03T03:41:30;100302.25;;;6.95;52.68
41800;BME280;27468;47.460;19.034;2023-04-03T03:43:56;100354.59;;;7.14;52.87
41800;BME280;27468;47.460;19.034;2023-04-03T03:46:22;100345.13;;;6.91;53.59
41800;BME280;27468;47.460;19.034;2023-04-03T03:48:47;100338.94;;;6.99;53.24
41800;BME280;27468;47.460;19.034;2023-04-03T03:51:13;100323.31;;;6.85;53.41
41800;BME280;27468;47.460;19.034;2023-04-03T03:53:38;100318.16;;;6.71;53.88
41800;BME280;27468;47.460;19.034;2023-04-03T03:56:04;100333.84;;;6.76;54.02
41800;BME280;27468;47.460;19.034;2023-04-03T03:58:31;100375.63;;;7.00;54.16
41800;BME280;27468;47.460;19.034;2023-04-03T04:01:00;100383.50;;;7.00;54.13
41800;BME280;27468;47.460;19.034;2023-04-03T04:03:26;100375.63;;;7.00;53.92
41800;BME280;27468;47.460;19.034;2023-04-03T04:05:51;100371.28;;;6.96;54.43
41800;BME280;27468;47.460;19.034;2023-04-03T04:08:17;100341.72;;;6.76;54.13
41800;BME280;27468;47.460;19.034;2023-04-03T04:10:42;100377.47;;;6.90;54.41
41800;BME280;27468;47.460;19.034;2023-04-03T04:13:08;100360.00;;;6.83;53.92
41800;BME280;27468;47.460;19.034;2023-04-03T04:15:33;100333.00;;;6.69;53.58
41800;BME280;27468;47.460;19.034;2023-04-03T04:17:59;100356.50;;;6.87;53.68
41800;BME280;27468;47.460;19.034;2023-04-03T04:20:24;100346.06;;;6.78;53.67
41800;BME280;27468;47.460;19.034;2023-04-03T04:22:49;100363.53;;;6.79;53.47
41800;BME280;27468;47.460;19.034;2023-04-03T04:25:15;100279.09;;;6.28;54.05
41800;BME280;27468;47.460;19.034;2023-04-03T04:27:41;100326.09;;;6.51;54.47
41800;BME280;27468;47.460;19.034;2023-04-03T04:30:06;100357.50;;;6.56;54.74
41800;BME280;27468;47.460;19.034;2023-04-03T04:32:32;100327.09;;;6.26;54.89
41800;BME280;27468;47.460;19.034;2023-04-03T04:34:58;100364.59;;;6.29;55.35
41800;BME280;27468;47.460;19.034;2023-04-03T04:37:23;100330.63;;;5.99;56.36
41800;BME280;27468;47.460;19.034;2023-04-03T04:39:48;100325.41;;;6.01;55.61
41800;BME280;27468;47.460;19.034;2023-04-03T04:42:14;100338.44;;;6.19;55.65
41800;BME280;27468;47.460;19.034;2023-04-03T04:44:40;100363.72;;;6.32;55.76
41800;BME280;27468;47.460;19.034;2023-04-03T04:47:05;100362.88;;;6.27;56.05
41800;BME280;27468;47.460;19.034;2023-04-03T04:49:31;100349.81;;;6.07;56.03
41800;BME280;27468;47.460;19.034;2023-04-03T04:51:56;100300.09;;;5.83;55.67
41800;BME280;27468;47.460;19.034;2023-04-03T04:54:21;100326.28;;;6.03;55.67
41800;BME280;27468;47.460;19.034;2023-04-03T04:56:47;100362.91;;;6.13;56.13
41800;BME280;27468;47.460;19.034;2023-04-03T04:59:12;100394.22;;;6.41;55.84
41800;BME280;27468;47.460;19.034;2023-04-03T05:01:38;100344.56;;;6.16;55.66
41800;BME280;27468;47.460;19.034;2023-04-03T05:04:04;100388.97;;;6.48;55.44
41800;BME280;27468;47.460;19.034;2023-04-03T05:06:29;100404.63;;;6.62;55.52
41800;BME280;27468;47.460;19.034;2023-04-03T05:08:57;100374.09;;;6.55;55.17
41800;BME280;27468;47.460;19.034;2023-04-03T05:11:22;100384.53;;;6.67;55.12
41800;BME280;27468;47.460;19.034;2023-04-03T05:13:48;100400.22;;;6.75;54.85
41800;BME280;27468;47.460;19.034;2023-04-03T05:16:13;100380.19;;;6.66;54.97
41800;BME280;27468;47.460;19.034;2023-04-03T05:18:38;100375.81;;;6.68;54.58
41800;BME280;27468;47.460;19.034;2023-04-03T05:21:04;100354.88;;;6.60;54.24
41800;BME280;27468;47.460;19.034;2023-04-03T05:23:30;100388.81;;;6.86;54.47
41800;BME280;27468;47.460;19.034;2023-04-03T05:25:55;100395.00;;;6.75;55.11
41800;BME280;27468;47.460;19.034;2023-04-03T05:28:20;100393.25;;;6.75;54.96
41800;BME280;27468;47.460;19.034;2023-04-03T05:30:55;100390.66;;;6.66;55.01
41800;BME280;27468;47.460;19.034;2023-04-03T05:33:22;100399.38;;;6.67;54.94
41800;BME280;27468;47.460;19.034;2023-04-03T05:35:47;100383.66;;;6.65;54.91
41800;BME280;27468;47.460;19.034;2023-04-03T05:38:13;100371.47;;;6.61;55.07
41800;BME280;27468;47.460;19.034;2023-04-03T05:40:39;100401.06;;;6.84;54.91
41800;BME280;27468;47.460;19.034;2023-04-03T05:43:04;100363.63;;;6.53;55.02
41800;BME280;27468;47.460;19.034;2023-04-03T05:45:30;100400.22;;;6.81;56.75
41800;BME280;27468;47.460;19.034;2023-04-03T05:47:55;100411.53;;;6.89;56.57
41800;BME280;27468;47.460;19.034;2023-04-03T05:50:21;100404.53;;;6.89;55.74
41800;BME280;27468;47.460;19.034;2023-04-03T05:52:48;100424.63;;;6.92;55.28
41800;BME280;27468;47.460;19.034;2023-04-03T05:55:14;100421.16;;;6.82;55.02
41800;BME280;27468;47.460;19.034;2023-04-03T05:57:39;100421.16;;;6.88;54.80
41800;BME280;27468;47.460;19.034;2023-04-03T06:00:07;100422.88;;;6.89;55.26
41800;BME280;27468;47.460;19.034;2023-04-03T06:02:32;100415.94;;;6.81;55.10
41800;BME280;27468;47.460;19.034;2023-04-03T06:04:58;100426.38;;;6.90;55.13
41800;BME280;27468;47.460;19.034;2023-04-03T06:07:24;100381.03;;;6.68;54.74
41800;BME280;27468;47.460;19.034;2023-04-03T06:09:54;100430.63;;;7.12;54.19
41800;BME280;27468;47.460;19.034;2023-04-03T06:12:21;100415.78;;;7.11;53.34
41800;BME280;27468;47.460;19.034;2023-04-03T06:14:47;100434.97;;;7.18;53.59
41800;BME280;27468;47.460;19.034;2023-04-03T06:17:13;100446.22;;;7.37;53.14
41800;BME280;27468;47.460;19.034;2023-04-03T06:19:38;100443.63;;;7.34;52.87
41800;BME280;27468;47.460;19.034;2023-04-03T06:22:04;100434.06;;;7.23;53.01
41800;BME280;27468;47.460;19.034;2023-04-03T06:24:30;100444.53;;;7.29;53.14
41800;BME280;27468;47.460;19.034;2023-04-03T06:26:56;100435.78;;;7.26;53.31
41800;BME280;27468;47.460;19.034;2023-04-03T06:29:21;100447.16;;;7.23;53.26
41800;BME280;27468;47.460;19.034;2023-04-03T06:31:48;100448.88;;;7.31;53.34
41800;BME280;27468;47.460;19.034;2023-04-03T06:34:13;100411.34;;;7.21;52.37
41800;BME280;27468;47.460;19.034;2023-04-03T06:36:41;100450.53;;;7.50;52.44
41800;BME280;27468;47.460;19.034;2023-04-03T06:39:08;100456.56;;;7.56;52.26
41800;BME280;27468;47.460;19.034;2023-04-03T06:41:33;100446.94;;;7.57;52.18
41800;BME280;27468;47.460;19.034;2023-04-03T06:43:59;100459.13;;;7.69;51.92
41800;BME280;27468;47.460;19.034;2023-04-03T06:46:26;100453.88;;;7.70;51.99
41800;BME280;27468;47.460;19.034;2023-04-03T06:48:52;100417.22;;;7.56;52.16
41800;BME280;27468;47.460;19.034;2023-04-03T06:53:43;100436.34;;;7.75;52.01
41800;BME280;27468;47.460;19.034;2023-04-03T06:56:08;100457.97;;;8.06;51.09
41800;BME280;27468;47.460;19.034;2023-04-03T06:58:33;100471.81;;;8.22;50.60
41800;BME280;27468;47.460;19.034;2023-04-03T07:00:59;100464.72;;;8.35;50.77
41800;BME280;27468;47.460;19.034;2023-04-03T07:03:25;100461.16;;;8.43;51.28
41800;BME280;27468;47.460;19.034;2023-04-03T07:05:50;100409.63;;;8.27;50.91
41800;BME280;27468;47.460;19.034;2023-04-03T07:08:15;100471.38;;;8.68;49.64
41800;BME280;27468;47.460;19.034;2023-04-03T07:10:41;100471.38;;;8.68;50.20
41800;BME280;27468;47.460;19.034;2023-04-03T07:13:06;100427.09;;;8.31;49.55
41800;BME280;27468;47.460;19.034;2023-04-03T07:15:32;100420.19;;;8.19;50.07
41800;BME280;27468;47.460;19.034;2023-04-03T07:17:58;100473.16;;;8.67;49.50
41800;BME280;27468;47.460;19.034;2023-04-03T07:20:23;100470.47;;;8.70;49.36
41800;BME280;27468;47.460;19.034;2023-04-03T07:22:49;100420.81;;;8.49;49.73
41800;BME280;27468;47.460;19.034;2023-04-03T07:25:15;100473.66;;;9.01;48.67
41800;BME280;27468;47.460;19.034;2023-04-03T07:27:41;100456.25;;;8.91;48.95
41800;BME280;27468;47.460;19.034;2023-04-03T07:30:07;100474.38;;;9.14;48.68
41800;BME280;27468;47.460;19.034;2023-04-03T07:32:33;100466.19;;;9.35;48.39
41800;BME280;27468;47.460;19.034;2023-04-03T07:34:58;100474.81;;;9.45;48.30
41800;BME280;27468;47.460;19.034;2023-04-03T07:37:23;100452.13;;;9.36;47.63
41800;BME280;27468;47.460;19.034;2023-04-03T07:39:49;100466.06;;;9.43;47.50
41800;BME280;27468;47.460;19.034;2023-04-03T07:42:14;100440.00;;;9.26;46.82
41800;BME280;27468;47.460;19.034;2023-04-03T07:44:40;100472.09;;;9.51;46.63
41800;BME280;27468;47.460;19.034;2023-04-03T07:47:06;100444.34;;;9.27;45.96
41800;BME280;27468;47.460;19.034;2023-04-03T07:49:31;100409.47;;;9.16;45.71
41800;BME280;27468;47.460;19.034;2023-04-03T07:51:58;100475.41;;;9.65;45.45
41800;BME280;27468;47.460;19.034;2023-04-03T07:54:23;100462.41;;;9.54;45.53
41800;BME280;27468;47.460;19.034;2023-04-03T07:56:49;100461.38;;;9.66;45.46
41800;BME280;27468;47.460;19.034;2023-04-03T07:59:14;100472.78;;;9.65;45.74
41800;BME280;27468;47.460;19.034;2023-04-03T08:01:40;100475.31;;;9.73;46.12
41800;BME280;27468;47.460;19.034;2023-04-03T08:04:05;100499.69;;;9.84;45.20
41800;BME280;27468;47.460;19.034;2023-04-03T08:06:32;100488.97;;;9.96;45.49
41800;BME280;27468;47.460;19.034;2023-04-03T08:09:00;100495.97;;;9.99;44.43
41800;BME280;27468;47.460;19.034;2023-04-03T08:11:25;100492.59;;;9.89;44.54
41800;BME280;27468;47.460;19.034;2023-04-03T08:13:52;100459.41;;;9.79;44.77
41800;BME280;27468;47.460;19.034;2023-04-03T08:16:20;100492.25;;;10.12;44.26
41800;BME280;27468;47.460;19.034;2023-04-03T08:18:47;100453.19;;;9.83;45.03
41800;BME280;27468;47.460;19.034;2023-04-03T08:21:12;100475.13;;;9.83;45.10
41800;BME280;27468;47.460;19.034;2023-04-03T08:23:39;100450.66;;;9.78;44.88
41800;BME280;27468;47.460;19.034;2023-04-03T08:26:13;100497.66;;;10.01;44.90
41800;BME280;27468;47.460;19.034;2023-04-03T08:28:39;100507.22;;;10.08;44.72
41800;BME280;27468;47.460;19.034;2023-04-03T08:31:07;100512.97;;;10.36;43.99
41800;BME280;27468;47.460;19.034;2023-04-03T08:33:34;100511.28;;;10.32;43.24
41800;BME280;27468;47.460;19.034;2023-04-03T08:36:01;100483.97;;;10.36;43.41
41800;BME280;27468;47.460;19.034;2023-04-03T08:38:26;100509.06;;;10.57;43.50
41800;BME280;27468;47.460;19.034;2023-04-03T08:51:59;100498.25;;;11.15;41.26
41800;BME280;27468;47.460;19.034;2023-04-03T08:54:37;100499.75;;;11.29;40.66
41800;BME280;27468;47.460;19.034;2023-04-03T08:57:06;100484.72;;;11.32;41.05
41800;BME280;27468;47.460;19.034;2023-04-03T08:59:36;100495.31;;;11.69;41.12
41800;BME280;27468;47.460;19.034;2023-04-03T09:02:27;100465.38;;;11.70;40.62
41800;BME280;27468;47.460;19.034;2023-04-03T09:04:54;100500.06;;;11.95;40.63
41800;BME280;27468;47.460;19.034;2023-04-03T09:07:29;100503.34;;;12.05;40.80
41800;BME280;27468;47.460;19.034;2023-04-03T09:09:59;100484.28;;;11.92;39.49
41800;BME280;27468;47.460;19.034;2023-04-03T09:12:36;100472.81;;;11.93;39.45
41800;BME280;27468;47.460;19.034;2023-04-03T09:15:17;100471.31;;;11.81;38.36
41800;BME280;27468;47.460;19.034;2023-04-03T09:20:21;100506.56;;;11.80;38.67
41800;BME280;27468;47.460;19.034;2023-04-03T09:22:51;100505.97;;;11.66;38.56
41800;BME280;27468;47.460;19.034;2023-04-03T09:25:33;100498.81;;;11.71;38.26
41800;BME280;27468;47.460;19.034;2023-04-03T09:28:01;100490.06;;;11.68;38.25
41800;BME280;27468;47.460;19.034;2023-04-03T09:30:28;100507.72;;;11.66;38.17
41800;BME280;27468;47.460;19.034;2023-04-03T09:32:56;100501.44;;;11.71;38.20
41800;BME280;27468;47.460;19.034;2023-04-03T09:35:30;100519.88;;;11.74;38.28
41800;BME280;27468;47.460;19.034;2023-04-03T09:38:01;100512.78;;;11.78;37.57
41800;BME280;27468;47.460;19.034;2023-04-03T09:42:58;100486.19;;;11.85;37.79
41800;BME280;27468;47.460;19.034;2023-04-03T09:45:30;100506.13;;;11.99;38.14
41800;BME280;27468;47.460;19.034;2023-04-03T09:48:20;100509.47;;;12.07;37.80
41800;BME280;27468;47.460;19.034;2023-04-03T09:53:44;100500.09;;;12.29;37.61
41800;BME280;27468;47.460;19.034;2023-04-03T09:58:44;100496.19;;;12.44;37.33
41800;BME280;27468;47.460;19.034;2023-04-03T10:06:43;100495.84;;;12.57;37.02
41800;BME280;27468;47.460;19.034;2023-04-03T10:09:28;100491.31;;;12.63;37.17
41800;BME280;27468;47.460;19.034;2023-04-03T10:12:07;100494.66;;;12.69;36.77
41800;BME280;27468;47.460;19.034;2023-04-03T10:14:36;100503.19;;;12.46;37.16
41800;BME280;27468;47.460;19.034;2023-04-03T10:17:32;100489.72;;;12.55;37.15
41800;BME280;27468;47.460;19.034;2023-04-03T10:35:56;100455.50;;;11.80;37.58
41800;BME280;27468;47.460;19.034;2023-04-03T10:46:48;100483.84;;;12.10;37.96
41800;BME280;27468;47.460;19.034;2023-04-03T10:49:18;100454.88;;;12.06;37.54
41800;BME280;27468;47.460;19.034;2023-04-03T10:51:48;100484.25;;;12.28;37.34
41800;BME280;27468;47.460;19.034;2023-04-03T10:54:26;100455.03;;;12.00;37.16
41800;BME280;27468;47.460;19.034;2023-04-03T10:57:00;100491.06;;;12.02;36.79
41800;BME280;27468;47.460;19.034;2023-04-03T10:59:41;100487.13;;;12.18;36.92
41800;BME280;27468;47.460;19.034;2023-04-03T11:02:17;100487.97;;;12.20;36.62
41800;BME280;27468;47.460;19.034;2023-04-03T11:04:51;100491.72;;;12.12;36.38
41800;BME280;27468;47.460;19.034;2023-04-03T11:07:25;100450.72;;;11.96;36.64
41800;BME280;27468;47.460;19.034;2023-04-03T11:09:59;100488.72;;;12.26;36.45
41800;BME280;27468;47.460;19.034;2023-04-03T11:12:36;100487.84;;;12.25;36.10
41800;BME280;27468;47.460;19.034;2023-04-03T11:15:04;100447.81;;;12.06;36.53
41800;BME280;27468;47.460;19.034;2023-04-03T11:17:39;100475.00;;;12.45;36.36
41800;BME280;27468;47.460;19.034;2023-04-03T11:20:26;100476.13;;;12.35;36.46
41800;BME280;27468;47.460;19.034;2023-04-03T11:25:43;100435.81;;;11.93;36.39
41800;BME280;27468;47.460;19.034;2023-04-03T11:28:13;100473.75;;;12.24;36.67
41800;BME280;27468;47.460;19.034;2023-04-03T11:35:47;100455.59;;;12.46;36.56
41800;BME280;27468;47.460;19.034;2023-04-03T11:38:23;100445.16;;;12.40;35.61
41800;BME280;27468;47.460;19.034;2023-04-03T11:40:54;100403.25;;;12.25;35.88
41800;BME280;27468;47.460;19.034;2023-04-03T11:43:23;100416.81;;;12.45;36.10
41800;BME280;27468;47.460;19.034;2023-04-03T11:46:01;100425.00;;;12.69;35.41
41800;BME280;27468;47.460;19.034;2023-04-03T11:50:54;100408.31;;;12.34;35.06
41800;BME280;27468;47.460;19.034;2023-04-03T11:53:35;100456.59;;;12.73;35.01
41800;BME280;27468;47.460;19.034;2023-04-03T12:01:47;100460.44;;;12.63;35.08
41800;BME280;27468;47.460;19.034;2023-04-03T12:04:16;100445.72;;;12.53;34.72
41800;BME280;27468;47.460;19.034;2023-04-03T12:07:11;100421.09;;;12.51;34.53
41800;BME280;27468;47.460;19.034;2023-04-03T12:12:27;100419.59;;;12.41;34.36
41800;BME280;27468;47.460;19.034;2023-04-03T12:14:53;100449.31;;;12.50;34.76
41800;BME280;27468;47.460;19.034;2023-04-03T12:17:22;100408.22;;;12.37;35.00
41800;BME280;27468;47.460;19.034;2023-04-03T12:19:51;100440.19;;;12.62;34.89
41800;BME280;27468;47.460;19.034;2023-04-03T12:22:18;100432.56;;;12.50;35.33
41800;BME280;27468;47.460;19.034;2023-04-03T12:24:49;100439.56;;;12.52;34.78
41800;BME280;27468;47.460;19.034;2023-04-03T12:27:25;100432.50;;;12.53;34.72
41800;BME280;27468;47.460;19.034;2023-04-03T12:35:37;100439.09;;;12.37;34.42
41800;BME280;27468;47.460;19.034;2023-04-03T12:46:23;100423.66;;;12.54;34.54
41800;BME280;27468;47.460;19.034;2023-04-03T12:48:52;100430.88;;;12.47;34.34
41800;BME280;27468;47.460;19.034;2023-04-03T12:51:37;100438.47;;;12.60;34.56
41800;BME280;27468;47.460;19.034;2023-04-03T12:54:38;100435.72;;;12.64;34.24
41800;BME280;27468;47.460;19.034;2023-04-03T12:57:24;100346.34;;;12.44;34.54
41800;BME280;27468;47.460;19.034;2023-04-03T12:59:50;100424.25;;;12.95;33.97
41800;BME280;27468;47.460;19.034;2023-04-03T13:04:53;100376.22;;;12.48;34.19
41800;BME280;27468;47.460;19.034;2023-04-03T13:07:21;100414.06;;;12.81;34.13
41800;BME280;27468;47.460;19.034;2023-04-03T13:12:34;100390.25;;;12.81;34.35
41800;BME280;27468;47.460;19.034;2023-04-03T13:15:11;100376.09;;;12.82;33.96
41800;BME280;27468;47.460;19.034;2023-04-03T13:17:38;100386.28;;;12.66;33.71
41800;BME280;27468;47.460;19.034;2023-04-03T13:20:13;100403.72;;;12.72;34.04
41800;BME280;27468;47.460;19.034;2023-04-03T13:22:54;100342.44;;;12.57;33.63
41800;BME280;27468;47.460;19.034;2023-04-03T13:25:23;100392.59;;;12.92;34.25
41800;BME280;27468;47.460;19.034;2023-04-03T13:27:49;100387.84;;;13.03;33.74
41800;BME280;27468;47.460;19.034;2023-04-03T13:32:54;100384.69;;;12.90;33.07
41800;BME280;27468;47.460;19.034;2023-04-03T13:38:06;100340.66;;;12.87;32.80
41800;BME280;27468;47.460;19.034;2023-04-03T13:40:33;100375.97;;;13.17;32.58
41800;BME280;27468;47.460;19.034;2023-04-03T13:43:18;100373.38;;;13.16;33.01
41800;BME280;27468;47.460;19.034;2023-04-03T13:48:45;100391.91;;;13.16;33.17
41800;BME280;27468;47.460;19.034;2023-04-03T13:54:00;100369.81;;;13.15;32.99
41800;BME280;27468;47.460;19.034;2023-04-03T13:56:36;100375.69;;;13.27;32.89
41800;BME280;27468;47.460;19.034;2023-04-03T14:01:52;100376.28;;;13.35;33.39
41800;BME280;27468;47.460;19.034;2023-04-03T14:04:29;100358.16;;;13.23;32.92
41800;BME280;27468;47.460;19.034;2023-04-03T14:06:55;100369.03;;;13.12;33.14
41800;BME280;27468;47.460;19.034;2023-04-03T14:09:22;100376.25;;;13.07;33.86
41800;BME280;27468;47.460;19.034;2023-04-03T14:11:50;100370.28;;;13.00;33.49
41800;BME280;27468;47.460;19.034;2023-04-03T14:14:27;100330.06;;;12.87;34.49
41800;BME280;27468;47.460;19.034;2023-04-03T14:16:59;100359.88;;;12.94;32.91
41800;BME280;27468;47.460;19.034;2023-04-03T14:19:33;100371.69;;;12.82;33.54
41800;BME280;27468;47.460;19.034;2023-04-03T14:22:00;100369.03;;;12.82;33.65
41800;BME280;27468;47.460;19.034;2023-04-03T14:24:26;100370.69;;;12.86;33.76
41800;BME280;27468;47.460;19.034;2023-04-03T14:26:54;100315.78;;;12.65;33.65
41800;BME280;27468;47.460;19.034;2023-04-03T14:29:20;100318.34;;;12.68;33.57
41800;BME280;27468;47.460;19.034;2023-04-03T14:31:47;100372.22;;;12.94;33.59
41800;BME280;27468;47.460;19.034;2023-04-03T14:34:14;100329.63;;;12.73;33.46
41800;BME280;27468;47.460;19.034;2023-04-03T14:36:42;100361.84;;;12.87;33.57
41800;BME280;27468;47.460;19.034;2023-04-03T14:39:11;100347.31;;;12.71;33.96
41800;BME280;27468;47.460;19.034;2023-04-03T14:41:41;100339.97;;;12.51;33.68